sensor_id;sensor_type;location;lat;lon;timestamp;temperature;humidity
25939;DHT22;13739;51.172;4.466;2023-02-08T00:01:50;-0.10;99.90
25939;DHT22;13739;51.172;4.466;2023-02-08T00:04:15;-0.10;99.90
25939;DHT22;13739;51.172;4.466;2023-02-08T00:06:41;-0.20;99.90
25939;DHT22;13739;51.172;4.466;2023-02-08T00:09:07;-0.20;99.90
25939;DHT22;13739;51.172;4.466;2023-02-08T00:11:34;-0.10;99.90
25939;DHT22;13739;51.172;4.466;2023-02-08T00:13:59;0.00;99.90
25939;DHT22;13739;51.172;4.466;2023-02-08T00:16:25;-0.10;99.90
25939;DHT22;13739;51.172;4.466;2023-02-08T00:18:51;-0.10;99.90
25939;DHT22;13739;51.172;4.466;2023-02-08T00:21:17;0.20;99.90
25939;DHT22;13739;51.172;4.466;2023-02-08T00:23:44;-0.10;99.90
25939;DHT22;13739;51.172;4.466;2023-02-08T00:26:11;-0.10;99.90
25939;DHT22;13739;51.172;4.466;2023-02-08T00:28:37;0.00;99.90
25939;DHT22;13739;51.172;4.466;2023-02-08T00:31:03;-0.20;99.90
25939;DHT22;13739;51.172;4.466;2023-02-08T00:33:29;-0.30;99.90
25939;DHT22;13739;51.172;4.466;2023-02-08T00:36:02;-0.30;99.90
25939;DHT22;13739;51.172;4.466;2023-02-08T00:38:29;-0.30;99.90
25939;DHT22;13739;51.172;4.466;2023-02-08T00:40:54;0.00;99.90
25939;DHT22;13739;51.172;4.466;2023-02-08T00:43:20;-0.30;99.90
25939;DHT22;13739;51.172;4.466;2023-02-08T00:45:46;-0.20;99.90
25939;DHT22;13739;51.172;4.466;2023-02-08T00:48:12;-0.20;99.90
25939;DHT22;13739;51.172;4.466;2023-02-08T00:50:37;-0.30;99.90
25939;DHT22;13739;51.172;4.466;2023-02-08T00:53:03;-0.30;99.90
25939;DHT22;13739;51.172;4.466;2023-02-08T00:55:29;-0.40;99.90
25939;DHT22;13739;51.172;4.466;2023-02-08T00:57:54;-0.40;99.90
25939;DHT22;13739;51.172;4.466;2023-02-08T01:00:20;-0.30;99.90
25939;DHT22;13739;51.172;4.466;2023-02-08T01:02:46;-0.20;99.90
25939;DHT22;13739;51.172;4.466;2023-02-08T01:05:12;0.00;99.90
25939;DHT22;13739;51.172;4.466;2023-02-08T01:07:38;0.10;99.90
25939;DHT22;13739;51.172;4.466;2023-02-08T01:10:05;0.10;99.90
25939;DHT22;13739;51.172;4.466;2023-02-08T01:12:30;-0.10;99.90
25939;DHT22;13739;51.172;4.466;2023-02-08T01:14:56;0.10;99.90
25939;DHT22;13739;51.172;4.466;2023-02-08T01:17:22;-0.10;99.90
25939;DHT22;13739;51.172;4.466;2023-02-08T01:19:48;0.00;99.90
25939;DHT22;13739;51.172;4.466;2023-02-08T01:22:13;-0.10;99.90
25939;DHT22;13739;51.172;4.466;2023-02-08T01:24:39;-0.10;99.90
25939;DHT22;13739;51.172;4.466;2023-02-08T01:27:05;-0.10;99.90
25939;DHT22;13739;51.172;4.466;2023-02-08T01:29:31;0.10;99.90
25939;DHT22;13739;51.172;4.466;2023-02-08T01:31:56;-0.20;99.90
25939;DHT22;13739;51.172;4.466;2023-02-08T01:34:22;-0.10;99.90
25939;DHT22;13739;51.172;4.466;2023-02-08T01:36:48;-0.20;99.90
25939;DHT22;13739;51.172;4.466;2023-02-08T01:39:13;-0.10;99.90
25939;DHT22;13739;51.172;4.466;2023-02-08T01:41:41;-0.10;99.90
25939;DHT22;13739;51.172;4.466;2023-02-08T01:49:16;-0.30;99.90
25939;DHT22;13739;51.172;4.466;2023-02-08T01:52:07;-0.40;99.90
25939;DHT22;13739;51.172;4.466;2023-02-08T01:54:42;-0.30;99.90
25939;DHT22;13739;51.172;4.466;2023-02-08T01:57:09;-0.40;99.90
25939;DHT22;13739;51.172;4.466;2023-02-08T01:59:40;-0.40;99.90
25939;DHT22;13739;51.172;4.466;2023-02-08T02:02:10;-0.30;99.90
25939;DHT22;13739;51.172;4.466;2023-02-08T02:04:38;-0.40;99.90
25939;DHT22;13739;51.172;4.466;2023-02-08T02:07:04;-0.10;99.90
25939;DHT22;13739;51.172;4.466;2023-02-08T02:12:01;-0.40;99.90
25939;DHT22;13739;51.172;4.466;2023-02-08T02:14:28;-0.50;99.90
25939;DHT22;13739;51.172;4.466;2023-02-08T02:16:54;-0.20;99.90
25939;DHT22;13739;51.172;4.466;2023-02-08T02:34:20;-0.50;99.90
25939;DHT22;13739;51.172;4.466;2023-02-08T02:42:28;-0.40;99.90
25939;DHT22;13739;51.172;4.466;2023-02-08T02:45:37;-0.40;99.90
25939;DHT22;13739;51.172;4.466;2023-02-08T02:48:16;-0.40;99.90
25939;DHT22;13739;51.172;4.466;2023-02-08T02:50:50;-0.50;99.90
25939;DHT22;13739;51.172;4.466;2023-02-08T02:53:53;-0.60;99.90
25939;DHT22;13739;51.172;4.466;2023-02-08T02:56:28;-0.60;99.90
25939;DHT22;13739;51.172;4.466;2023-02-08T02:58:57;-0.50;99.90
25939;DHT22;13739;51.172;4.466;2023-02-08T03:01:24;-0.70;99.90
25939;DHT22;13739;51.172;4.466;2023-02-08T03:03:51;-0.60;99.90
25939;DHT22;13739;51.172;4.466;2023-02-08T03:09:43;-0.60;99.90
25939;DHT22;13739;51.172;4.466;2023-02-08T03:12:37;-0.60;99.90
25939;DHT22;13739;51.172;4.466;2023-02-08T03:20:49;-0.80;99.90
25939;DHT22;13739;51.172;4.466;2023-02-08T03:37:15;-1.00;99.90
25939;DHT22;13739;51.172;4.466;2023-02-08T03:39:46;-1.00;99.90
25939;DHT22;13739;51.172;4.466;2023-02-08T03:42:18;-0.90;99.90
25939;DHT22;13739;51.172;4.466;2023-02-08T03:45:11;-0.90;99.90
25939;DHT22;13739;51.172;4.466;2023-02-08T03:47:42;-0.70;99.90
25939;DHT22;13739;51.172;4.466;2023-02-08T03:50:10;-0.80;99.90
25939;DHT22;13739;51.172;4.466;2023-02-08T03:52:37;-0.90;99.90
25939;DHT22;13739;51.172;4.466;2023-02-08T04:00:58;-1.00;99.90
25939;DHT22;13739;51.172;4.466;2023-02-08T04:03:28;-0.90;99.90
25939;DHT22;13739;51.172;4.466;2023-02-08T04:05:55;-0.80;99.90
25939;DHT22;13739;51.172;4.466;2023-02-08T04:08:21;-1.00;99.90
25939;DHT22;13739;51.172;4.466;2023-02-08T04:10:47;-0.90;99.90
25939;DHT22;13739;51.172;4.466;2023-02-08T04:13:13;-1.10;99.90
25939;DHT22;13739;51.172;4.466;2023-02-08T04:15:38;-1.10;99.90
25939;DHT22;13739;51.172;4.466;2023-02-08T04:18:04;-0.80;99.90
25939;DHT22;13739;51.172;4.466;2023-02-08T04:20:30;-1.00;99.90
25939;DHT22;13739;51.172;4.466;2023-02-08T04:22:55;-0.90;99.90
25939;DHT22;13739;51.172;4.466;2023-02-08T04:25:21;-1.20;99.90
25939;DHT22;13739;51.172;4.466;2023-02-08T04:27:47;-1.10;99.90
25939;DHT22;13739;51.172;4.466;2023-02-08T04:30:13;-1.10;99.90
25939;DHT22;13739;51.172;4.466;2023-02-08T04:32:38;-1.30;99.90
25939;DHT22;13739;51.172;4.466;2023-02-08T04:35:04;-1.30;99.90
25939;DHT22;13739;51.172;4.466;2023-02-08T04:37:30;-1.40;99.90
25939;DHT22;13739;51.172;4.466;2023-02-08T04:39:56;-1.20;99.90
25939;DHT22;13739;51.172;4.466;2023-02-08T04:42:22;-1.10;99.90
25939;DHT22;13739;51.172;4.466;2023-02-08T04:44:48;-0.90;99.90
25939;DHT22;13739;51.172;4.466;2023-02-08T04:47:13;-1.30;99.90
25939;DHT22;13739;51.172;4.466;2023-02-08T04:49:39;-1.40;99.90
25939;DHT22;13739;51.172;4.466;2023-02-08T04:52:05;-1.50;99.90
25939;DHT22;13739;51.172;4.466;2023-02-08T04:54:31;-1.30;99.90
25939;DHT22;13739;51.172;4.466;2023-02-08T04:56:57;-1.20;99.90
25939;DHT22;13739;51.172;4.466;2023-02-08T05:02:07;-1.20;99.90
25939;DHT22;13739;51.172;4.466;2023-02-08T05:04:32;-1.20;99.90
25939;DHT22;13739;51.172;4.466;2023-02-08T05:06:58;-1.20;99.90
25939;DHT22;13739;51.172;4.466;2023-02-08T05:09:24;-1.30;99.90
25939;DHT22;13739;51.172;4.466;2023-02-08T05:11:50;-1.20;99.90
25939;DHT22;13739;51.172;4.466;2023-02-08T05:14:15;-1.20;99.90
25939;DHT22;13739;51.172;4.466;2023-02-08T05:16:41;-1.10;99.90
25939;DHT22;13739;51.172;4.466;2023-02-08T05:19:08;-0.90;99.90
25939;DHT22;13739;51.172;4.466;2023-02-08T05:21:34;-1.00;99.90
25939;DHT22;13739;51.172;4.466;2023-02-08T05:23:59;-1.10;99.90
25939;DHT22;13739;51.172;4.466;2023-02-08T05:26:26;-1.30;99.90
25939;DHT22;13739;51.172;4.466;2023-02-08T05:37:14;-1.60;99.90
25939;DHT22;13739;51.172;4.466;2023-02-08T05:42:24;-1.60;99.90
25939;DHT22;13739;51.172;4.466;2023-02-08T05:44:50;-1.60;99.90
25939;DHT22;13739;51.172;4.466;2023-02-08T05:50:02;-1.50;99.90
25939;DHT22;13739;51.172;4.466;2023-02-08T06:14:41;-1.80;99.90
25939;DHT22;13739;51.172;4.466;2023-02-08T06:27:53;-1.60;99.90
25939;DHT22;13739;51.172;4.466;2023-02-08T06:36:28;-1.70;99.90
25939;DHT22;13739;51.172;4.466;2023-02-08T06:39:35;-1.70;99.90
25939;DHT22;13739;51.172;4.466;2023-02-08T06:42:29;-1.70;99.90
25939;DHT22;13739;51.172;4.466;2023-02-08T06:45:05;-1.60;99.90
25939;DHT22;13739;51.172;4.466;2023-02-08T06:47:35;-1.50;99.90
25939;DHT22;13739;51.172;4.466;2023-02-08T06:50:02;-1.20;99.90
25939;DHT22;13739;51.172;4.466;2023-02-08T06:52:28;-1.30;99.90
25939;DHT22;13739;51.172;4.466;2023-02-08T06:54:53;-1.20;99.90
25939;DHT22;13739;51.172;4.466;2023-02-08T06:57:19;-1.60;99.90
25939;DHT22;13739;51.172;4.466;2023-02-08T06:59:45;-1.60;99.90
25939;DHT22;13739;51.172;4.466;2023-02-08T07:02:20;-1.50;99.90
25939;DHT22;13739;51.172;4.466;2023-02-08T07:04:46;-1.50;99.90
25939;DHT22;13739;51.172;4.466;2023-02-08T07:07:13;-1.60;99.90
25939;DHT22;13739;51.172;4.466;2023-02-08T07:09:40;-1.60;99.90
25939;DHT22;13739;51.172;4.466;2023-02-08T07:12:07;-1.60;99.90
25939;DHT22;13739;51.172;4.466;2023-02-08T07:14:38;-1.60;99.90
25939;DHT22;13739;51.172;4.466;2023-02-08T07:17:04;-1.50;99.90
25939;DHT22;13739;51.172;4.466;2023-02-08T07:19:30;-1.40;99.90
25939;DHT22;13739;51.172;4.466;2023-02-08T07:21:56;-1.70;99.90
25939;DHT22;13739;51.172;4.466;2023-02-08T07:24:31;-1.70;99.90
25939;DHT22;13739;51.172;4.466;2023-02-08T07:26:57;-1.70;99.90
25939;DHT22;13739;51.172;4.466;2023-02-08T07:29:22;-1.60;99.90
25939;DHT22;13739;51.172;4.466;2023-02-08T07:31:48;-1.50;99.90
25939;DHT22;13739;51.172;4.466;2023-02-08T07:34:14;-1.50;99.90
25939;DHT22;13739;51.172;4.466;2023-02-08T07:36:46;-1.50;99.90
25939;DHT22;13739;51.172;4.466;2023-02-08T07:39:13;-1.30;99.90
25939;DHT22;13739;51.172;4.466;2023-02-08T07:41:39;-1.20;99.90
25939;DHT22;13739;51.172;4.466;2023-02-08T07:44:04;-1.10;99.90
25939;DHT22;13739;51.172;4.466;2023-02-08T07:46:30;-1.40;99.90
25939;DHT22;13739;51.172;4.466;2023-02-08T07:48:56;-1.10;99.90
25939;DHT22;13739;51.172;4.466;2023-02-08T07:51:22;-1.30;99.90
25939;DHT22;13739;51.172;4.466;2023-02-08T07:53:48;-1.30;99.90
25939;DHT22;13739;51.172;4.466;2023-02-08T07:56:14;-1.20;99.90
25939;DHT22;13739;51.172;4.466;2023-02-08T07:58:40;-1.00;99.90
25939;DHT22;13739;51.172;4.466;2023-02-08T08:01:06;-1.20;99.90
25939;DHT22;13739;51.172;4.466;2023-02-08T08:03:31;-0.90;99.90
25939;DHT22;13739;51.172;4.466;2023-02-08T08:05:57;-1.10;99.90
25939;DHT22;13739;51.172;4.466;2023-02-08T08:08:23;-1.10;99.90
25939;DHT22;13739;51.172;4.466;2023-02-08T08:10:48;-1.00;99.90
25939;DHT22;13739;51.172;4.466;2023-02-08T08:13:15;-1.00;99.90
25939;DHT22;13739;51.172;4.466;2023-02-08T08:15:40;-0.70;99.90
25939;DHT22;13739;51.172;4.466;2023-02-08T08:18:07;-0.60;99.90
25939;DHT22;13739;51.172;4.466;2023-02-08T08:20:33;-0.20;99.90
25939;DHT22;13739;51.172;4.466;2023-02-08T08:22:59;-0.20;99.90
25939;DHT22;13739;51.172;4.466;2023-02-08T08:25:25;-0.10;99.90
25939;DHT22;13739;51.172;4.466;2023-02-08T08:27:51;-0.20;99.90
25939;DHT22;13739;51.172;4.466;2023-02-08T08:30:17;0.00;99.90
25939;DHT22;13739;51.172;4.466;2023-02-08T08:32:43;0.10;99.90
25939;DHT22;13739;51.172;4.466;2023-02-08T08:35:09;0.10;99.90
25939;DHT22;13739;51.172;4.466;2023-02-08T08:37:35;0.10;99.90
25939;DHT22;13739;51.172;4.466;2023-02-08T08:40:02;0.10;99.90
25939;DHT22;13739;51.172;4.466;2023-02-08T08:42:28;0.10;99.90
25939;DHT22;13739;51.172;4.466;2023-02-08T08:44:54;0.30;99.90
25939;DHT22;13739;51.172;4.466;2023-02-08T08:47:19;0.20;99.90
25939;DHT22;13739;51.172;4.466;2023-02-08T08:49:45;0.20;99.90
25939;DHT22;13739;51.172;4.466;2023-02-08T08:52:11;0.30;99.90
25939;DHT22;13739;51.172;4.466;2023-02-08T08:54:37;0.40;99.90
25939;DHT22;13739;51.172;4.466;2023-02-08T08:57:03;0.50;99.90
25939;DHT22;13739;51.172;4.466;2023-02-08T08:59:29;0.70;99.90
25939;DHT22;13739;51.172;4.466;2023-02-08T09:01:55;0.80;99.90
25939;DHT22;13739;51.172;4.466;2023-02-08T09:04:20;0.80;99.90
25939;DHT22;13739;51.172;4.466;2023-02-08T09:06:51;0.80;99.90
25939;DHT22;13739;51.172;4.466;2023-02-08T09:09:17;0.90;99.90
25939;DHT22;13739;51.172;4.466;2023-02-08T09:11:43;1.00;99.90
25939;DHT22;13739;51.172;4.466;2023-02-08T09:14:09;1.20;99.90
25939;DHT22;13739;51.172;4.466;2023-02-08T09:16:35;1.30;99.90
25939;DHT22;13739;51.172;4.466;2023-02-08T09:19:05;1.40;99.90
25939;DHT22;13739;51.172;4.466;2023-02-08T09:21:32;1.40;99.90
25939;DHT22;13739;51.172;4.466;2023-02-08T09:24:00;1.40;99.90
25939;DHT22;13739;51.172;4.466;2023-02-08T09:26:27;1.50;99.90
25939;DHT22;13739;51.172;4.466;2023-02-08T09:28:52;1.60;99.90
25939;DHT22;13739;51.172;4.466;2023-02-08T09:31:21;1.70;99.90
25939;DHT22;13739;51.172;4.466;2023-02-08T09:33:48;1.80;99.90
25939;DHT22;13739;51.172;4.466;2023-02-08T09:36:15;1.80;99.90
25939;DHT22;13739;51.172;4.466;2023-02-08T09:38:41;1.80;99.90
25939;DHT22;13739;51.172;4.466;2023-02-08T09:46:26;2.00;99.90
25939;DHT22;13739;51.172;4.466;2023-02-08T09:48:56;2.10;99.90
25939;DHT22;13739;51.172;4.466;2023-02-08T09:51:39;2.20;99.90
25939;DHT22;13739;51.172;4.466;2023-02-08T09:56:52;2.30;99.90
25939;DHT22;13739;51.172;4.466;2023-02-08T09:59:22;2.30;99.90
25939;DHT22;13739;51.172;4.466;2023-02-08T10:01:51;2.30;99.90
25939;DHT22;13739;51.172;4.466;2023-02-08T10:04:27;2.40;99.90
25939;DHT22;13739;51.172;4.466;2023-02-08T10:06:55;2.40;99.90
25939;DHT22;13739;51.172;4.466;2023-02-08T10:09:25;2.50;99.90
25939;DHT22;13739;51.172;4.466;2023-02-08T10:36:43;3.30;99.90
25939;DHT22;13739;51.172;4.466;2023-02-08T10:39:18;3.30;99.90
25939;DHT22;13739;51.172;4.466;2023-02-08T10:41:47;3.60;99.90
25939;DHT22;13739;51.172;4.466;2023-02-08T10:44:33;3.70;99.90
25939;DHT22;13739;51.172;4.466;2023-02-08T10:52:31;4.30;99.90
25939;DHT22;13739;51.172;4.466;2023-02-08T10:54:58;4.30;99.90
25939;DHT22;13739;51.172;4.466;2023-02-08T10:57:29;4.30;99.90
25939;DHT22;13739;51.172;4.466;2023-02-08T11:00:21;4.50;99.90
25939;DHT22;13739;51.172;4.466;2023-02-08T11:02:50;4.30;99.90
25939;DHT22;13739;51.172;4.466;2023-02-08T11:05:36;4.50;99.90
25939;DHT22;13739;51.172;4.466;2023-02-08T11:08:14;4.60;99.90
25939;DHT22;13739;51.172;4.466;2023-02-08T11:13:40;4.70;99.90
25939;DHT22;13739;51.172;4.466;2023-02-08T11:16:09;4.80;99.90
25939;DHT22;13739;51.172;4.466;2023-02-08T11:18:50;4.80;99.90
25939;DHT22;13739;51.172;4.466;2023-02-08T11:21:25;4.70;99.90
25939;DHT22;13739;51.172;4.466;2023-02-08T11:23:53;4.80;99.90
25939;DHT22;13739;51.172;4.466;2023-02-08T11:26:37;4.90;99.90
25939;DHT22;13739;51.172;4.466;2023-02-08T11:29:15;4.90;99.90
25939;DHT22;13739;51.172;4.466;2023-02-08T11:32:04;4.90;99.90
25939;DHT22;13739;51.172;4.466;2023-02-08T11:34:38;4.90;99.90
25939;DHT22;13739;51.172;4.466;2023-02-08T11:37:18;5.00;99.90
25939;DHT22;13739;51.172;4.466;2023-02-08T11:39:57;5.00;99.90
25939;DHT22;13739;51.172;4.466;2023-02-08T11:42:24;5.20;99.90
25939;DHT22;13739;51.172;4.466;2023-02-08T11:44:51;5.30;99.90
25939;DHT22;13739;51.172;4.466;2023-02-08T11:47:25;5.40;99.50
25939;DHT22;13739;51.172;4.466;2023-02-08T11:49:54;5.40;98.20
25939;DHT22;13739;51.172;4.466;2023-02-08T11:52:30;5.40;96.10
25939;DHT22;13739;51.172;4.466;2023-02-08T11:57:51;5.40;95.00
25939;DHT22;13739;51.172;4.466;2023-02-08T12:00:21;5.40;94.30
25939;DHT22;13739;51.172;4.466;2023-02-08T12:02:49;5.50;94.20
25939;DHT22;13739;51.172;4.466;2023-02-08T12:05:27;5.50;94.10
25939;DHT22;13739;51.172;4.466;2023-02-08T12:13:32;5.90;92.40
25939;DHT22;13739;51.172;4.466;2023-02-08T12:19:07;6.10;91.00
25939;DHT22;13739;51.172;4.466;2023-02-08T12:21:41;6.30;88.20
25939;DHT22;13739;51.172;4.466;2023-02-08T12:27:17;6.20;86.00
25939;DHT22;13739;51.172;4.466;2023-02-08T12:29:49;6.60;86.20
25939;DHT22;13739;51.172;4.466;2023-02-08T12:46:25;6.90;68.70
25939;DHT22;13739;51.172;4.466;2023-02-08T12:49:13;6.80;68.00
25939;DHT22;13739;51.172;4.466;2023-02-08T12:55:04;6.70;70.00
25939;DHT22;13739;51.172;4.466;2023-02-08T12:57:33;6.90;73.20
25939;DHT22;13739;51.172;4.466;2023-02-08T13:00:00;7.00;72.90
25939;DHT22;13739;51.172;4.466;2023-02-08T13:02:49;6.90;73.30
25939;DHT22;13739;51.172;4.466;2023-02-08T13:05:23;6.80;71.50
25939;DHT22;13739;51.172;4.466;2023-02-08T13:08:44;6.80;67.10
25939;DHT22;13739;51.172;4.466;2023-02-08T13:10:47;7.00;67.10
25939;DHT22;13739;51.172;4.466;2023-02-08T13:13:29;7.30;65.60
25939;DHT22;13739;51.172;4.466;2023-02-08T13:16:21;7.30;63.90
25939;DHT22;13739;51.172;4.466;2023-02-08T13:19:20;7.30;66.50
25939;DHT22;13739;51.172;4.466;2023-02-08T13:21:42;7.10;65.20
25939;DHT22;13739;51.172;4.466;2023-02-08T13:24:38;7.00;64.00
25939;DHT22;13739;51.172;4.466;2023-02-08T13:27:04;7.00;63.20
25939;DHT22;13739;51.172;4.466;2023-02-08T13:29:34;7.00;64.60
25939;DHT22;13739;51.172;4.466;2023-02-08T13:32:10;6.90;65.90
25939;DHT22;13739;51.172;4.466;2023-02-08T13:34:44;7.00;66.30
25939;DHT22;13739;51.172;4.466;2023-02-08T13:37:19;7.00;67.40
25939;DHT22;13739;51.172;4.466;2023-02-08T13:39:47;7.10;66.30
25939;DHT22;13739;51.172;4.466;2023-02-08T13:42:26;7.10;63.30
25939;DHT22;13739;51.172;4.466;2023-02-08T13:44:55;7.30;61.90
25939;DHT22;13739;51.172;4.466;2023-02-08T13:47:33;7.30;63.60
25939;DHT22;13739;51.172;4.466;2023-02-08T13:50:08;7.30;61.40
25939;DHT22;13739;51.172;4.466;2023-02-08T13:52:51;7.30;61.30
25939;DHT22;13739;51.172;4.466;2023-02-08T13:58:27;7.30;61.40
25939;DHT22;13739;51.172;4.466;2023-02-08T14:05:56;7.60;61.90
25939;DHT22;13739;51.172;4.466;2023-02-08T14:14:16;7.30;61.80
25939;DHT22;13739;51.172;4.466;2023-02-08T14:16:45;7.30;62.50
25939;DHT22;13739;51.172;4.466;2023-02-08T14:21:48;7.30;63.00
25939;DHT22;13739;51.172;4.466;2023-02-08T14:32:52;7.20;60.90
25939;DHT22;13739;51.172;4.466;2023-02-08T14:35:22;7.40;61.50
25939;DHT22;13739;51.172;4.466;2023-02-08T14:41:02;7.50;62.30
25939;DHT22;13739;51.172;4.466;2023-02-08T14:43:33;7.40;61.20
25939;DHT22;13739;51.172;4.466;2023-02-08T14:49:15;7.20;64.00
25939;DHT22;13739;51.172;4.466;2023-02-08T14:52:03;7.20;64.30
25939;DHT22;13739;51.172;4.466;2023-02-08T14:54:42;7.10;63.90
25939;DHT22;13739;51.172;4.466;2023-02-08T14:57:25;7.20;64.30
25939;DHT22;13739;51.172;4.466;2023-02-08T14:59:54;7.20;65.10
25939;DHT22;13739;51.172;4.466;2023-02-08T15:02:24;7.40;64.40
25939;DHT22;13739;51.172;4.466;2023-02-08T15:04:51;7.50;63.40
25939;DHT22;13739;51.172;4.466;2023-02-08T15:07:46;7.60;63.20
25939;DHT22;13739;51.172;4.466;2023-02-08T15:10:16;7.60;61.80
25939;DHT22;13739;51.172;4.466;2023-02-08T15:12:45;7.50;63.10
25939;DHT22;13739;51.172;4.466;2023-02-08T15:15:28;7.40;63.70
25939;DHT22;13739;51.172;4.466;2023-02-08T15:17:56;7.40;62.70
25939;DHT22;13739;51.172;4.466;2023-02-08T15:20:24;7.30;62.20
25939;DHT22;13739;51.172;4.466;2023-02-08T15:23:18;7.30;62.30
25939;DHT22;13739;51.172;4.466;2023-02-08T15:25:54;7.30;62.60
25939;DHT22;13739;51.172;4.466;2023-02-08T15:28:22;7.20;62.70
25939;DHT22;13739;51.172;4.466;2023-02-08T15:30:55;7.10;63.30
25939;DHT22;13739;51.172;4.466;2023-02-08T15:33:22;7.10;62.80
25939;DHT22;13739;51.172;4.466;2023-02-08T15:35:56;7.10;61.80
25939;DHT22;13739;51.172;4.466;2023-02-08T15:38:22;7.20;62.10
25939;DHT22;13739;51.172;4.466;2023-02-08T15:41:09;7.10;61.20
25939;DHT22;13739;51.172;4.466;2023-02-08T15:43:37;7.10;61.60
25939;DHT22;13739;51.172;4.466;2023-02-08T15:46:05;7.00;62.10
25939;DHT22;13739;51.172;4.466;2023-02-08T15:48:32;7.10;62.80
25939;DHT22;13739;51.172;4.466;2023-02-08T15:50:59;7.20;63.10
25939;DHT22;13739;51.172;4.466;2023-02-08T15:53:26;7.20;62.80
25939;DHT22;13739;51.172;4.466;2023-02-08T15:55:58;7.20;62.50
25939;DHT22;13739;51.172;4.466;2023-02-08T15:58:37;7.10;62.90
25939;DHT22;13739;51.172;4.466;2023-02-08T16:01:06;7.00;63.40
25939;DHT22;13739;51.172;4.466;2023-02-08T16:03:34;6.90;64.30
25939;DHT22;13739;51.172;4.466;2023-02-08T16:06:05;6.90;64.80
25939;DHT22;13739;51.172;4.466;2023-02-08T16:08:36;6.70;65.20
25939;DHT22;13739;51.172;4.466;2023-02-08T16:11:13;6.70;65.10
25939;DHT22;13739;51.172;4.466;2023-02-08T16:13:45;6.60;65.70
25939;DHT22;13739;51.172;4.466;2023-02-08T16:16:19;6.50;66.30
25939;DHT22;13739;51.172;4.466;2023-02-08T16:18:55;6.40;66.70
25939;DHT22;13739;51.172;4.466;2023-02-08T16:21:35;6.40;67.00
25939;DHT22;13739;51.172;4.466;2023-02-08T16:26:47;6.20;69.10
25939;DHT22;13739;51.172;4.466;2023-02-08T16:31:45;6.10;70.00
25939;DHT22;13739;51.172;4.466;2023-02-08T16:34:15;6.00;70.80
25939;DHT22;13739;51.172;4.466;2023-02-08T16:36:44;6.00;71.60
25939;DHT22;13739;51.172;4.466;2023-02-08T16:42:00;5.90;72.40
25939;DHT22;13739;51.172;4.466;2023-02-08T16:44:32;5.80;72.80
25939;DHT22;13739;51.172;4.466;2023-02-08T16:46:59;5.70;73.80
25939;DHT22;13739;51.172;4.466;2023-02-08T16:49:25;5.70;74.10
25939;DHT22;13739;51.172;4.466;2023-02-08T16:52:00;5.60;75.20
25939;DHT22;13739;51.172;4.466;2023-02-08T16:54:25;5.40;75.70
25939;DHT22;13739;51.172;4.466;2023-02-08T16:56:52;5.40;79.00
25939;DHT22;13739;51.172;4.466;2023-02-08T16:59:25;5.30;79.50
25939;DHT22;13739;51.172;4.466;2023-02-08T17:01:51;5.30;80.80
25939;DHT22;13739;51.172;4.466;2023-02-08T17:04:17;5.20;82.20
25939;DHT22;13739;51.172;4.466;2023-02-08T17:06:44;5.20;86.10
25939;DHT22;13739;51.172;4.466;2023-02-08T17:09:12;5.10;89.20
25939;DHT22;13739;51.172;4.466;2023-02-08T17:11:38;5.00;90.70
25939;DHT22;13739;51.172;4.466;2023-02-08T17:14:05;4.90;91.40
25939;DHT22;13739;51.172;4.466;2023-02-08T17:16:32;4.90;92.20
25939;DHT22;13739;51.172;4.466;2023-02-08T17:18:59;4.80;93.00
25939;DHT22;13739;51.172;4.466;2023-02-08T17:21:26;4.70;94.20
25939;DHT22;13739;51.172;4.466;2023-02-08T17:23:53;4.60;95.10
25939;DHT22;13739;51.172;4.466;2023-02-08T17:26:28;4.60;96.40
25939;DHT22;13739;51.172;4.466;2023-02-08T17:28:56;4.60;97.10
25939;DHT22;13739;51.172;4.466;2023-02-08T17:31:24;4.50;97.10
25939;DHT22;13739;51.172;4.466;2023-02-08T17:33:50;4.50;97.50
25939;DHT22;13739;51.172;4.466;2023-02-08T17:36:17;4.40;97.10
25939;DHT22;13739;51.172;4.466;2023-02-08T17:38:44;4.40;96.70
25939;DHT22;13739;51.172;4.466;2023-02-08T17:41:16;4.30;97.20
25939;DHT22;13739;51.172;4.466;2023-02-08T17:43:42;4.30;98.20
25939;DHT22;13739;51.172;4.466;2023-02-08T17:46:09;4.30;98.00
25939;DHT22;13739;51.172;4.466;2023-02-08T17:48:35;4.20;97.10
25939;DHT22;13739;51.172;4.466;2023-02-08T17:51:01;4.20;97.60
25939;DHT22;13739;51.172;4.466;2023-02-08T17:53:26;4.10;97.70
25939;DHT22;13739;51.172;4.466;2023-02-08T17:55:52;4.10;97.80
25939;DHT22;13739;51.172;4.466;2023-02-08T17:58:19;4.10;98.40
25939;DHT22;13739;51.172;4.466;2023-02-08T18:00:44;4.10;98.80
25939;DHT22;13739;51.172;4.466;2023-02-08T18:03:10;4.10;96.90
25939;DHT22;13739;51.172;4.466;2023-02-08T18:05:36;4.10;97.00
25939;DHT22;13739;51.172;4.466;2023-02-08T18:08:02;4.00;97.20
25939;DHT22;13739;51.172;4.466;2023-02-08T18:10:28;4.00;97.30
25939;DHT22;13739;51.172;4.466;2023-02-08T18:12:53;4.00;97.80
25939;DHT22;13739;51.172;4.466;2023-02-08T18:15:20;4.00;97.80
25939;DHT22;13739;51.172;4.466;2023-02-08T18:17:47;4.00;97.70
25939;DHT22;13739;51.172;4.466;2023-02-08T18:20:15;4.00;97.80
25939;DHT22;13739;51.172;4.466;2023-02-08T18:22:42;4.00;97.10
25939;DHT22;13739;51.172;4.466;2023-02-08T18:25:09;3.90;97.10
25939;DHT22;13739;51.172;4.466;2023-02-08T18:27:35;3.80;97.40
25939;DHT22;13739;51.172;4.466;2023-02-08T18:30:00;3.70;98.90
25939;DHT22;13739;51.172;4.466;2023-02-08T18:32:27;3.70;98.20
25939;DHT22;13739;51.172;4.466;2023-02-08T18:34:54;3.70;98.10
25939;DHT22;13739;51.172;4.466;2023-02-08T18:37:19;3.70;98.40
25939;DHT22;13739;51.172;4.466;2023-02-08T18:39:46;3.70;99.30
25939;DHT22;13739;51.172;4.466;2023-02-08T18:42:14;3.60;99.90
25939;DHT22;13739;51.172;4.466;2023-02-08T18:44:40;3.60;99.80
25939;DHT22;13739;51.172;4.466;2023-02-08T18:47:07;3.50;99.90
25939;DHT22;13739;51.172;4.466;2023-02-08T18:49:33;3.50;99.90
25939;DHT22;13739;51.172;4.466;2023-02-08T18:52:06;3.40;99.90
25939;DHT22;13739;51.172;4.466;2023-02-08T18:54:32;3.40;99.90
25939;DHT22;13739;51.172;4.466;2023-02-08T18:56:57;3.30;99.90
25939;DHT22;13739;51.172;4.466;2023-02-08T18:59:25;3.30;99.90
25939;DHT22;13739;51.172;4.466;2023-02-08T19:01:51;3.20;99.90
25939;DHT22;13739;51.172;4.466;2023-02-08T19:04:17;3.50;99.90
25939;DHT22;13739;51.172;4.466;2023-02-08T19:06:42;3.50;99.90
25939;DHT22;13739;51.172;4.466;2023-02-08T19:09:08;3.30;99.90
25939;DHT22;13739;51.172;4.466;2023-02-08T19:11:38;3.10;99.90
25939;DHT22;13739;51.172;4.466;2023-02-08T19:14:09;3.00;99.90
25939;DHT22;13739;51.172;4.466;2023-02-08T19:16:36;2.80;99.90
25939;DHT22;13739;51.172;4.466;2023-02-08T19:19:02;2.80;99.90
25939;DHT22;13739;51.172;4.466;2023-02-08T19:21:29;2.80;99.90
25939;DHT22;13739;51.172;4.466;2023-02-08T19:23:56;2.70;99.90
25939;DHT22;13739;51.172;4.466;2023-02-08T19:26:30;2.80;99.90
25939;DHT22;13739;51.172;4.466;2023-02-08T19:28:59;2.80;99.90
25939;DHT22;13739;51.172;4.466;2023-02-08T19:31:26;2.80;99.90
25939;DHT22;13739;51.172;4.466;2023-02-08T19:33:53;2.80;99.90
25939;DHT22;13739;51.172;4.466;2023-02-08T19:36:28;2.80;99.90
25939;DHT22;13739;51.172;4.466;2023-02-08T19:38:56;2.70;99.90
25939;DHT22;13739;51.172;4.466;2023-02-08T19:41:24;2.70;99.90